^^
Datos históricos de la estación: Murcia-Puente Tocinos
Diario Informe para Marzo 14, 2019 Unidades:  Métrico    Inglés   Ambas
Diario Semanal Mensual Anual Configurable
  Máximo: Mínimo: Media:
Temperatura: 21.3 °C 9.6 °C 14.6 °C
Punto de rocio: 7.8 °C -3.6 °C 3 °C
Humedad: 77% 19% 50%
Velocidad viento: 16.4km/h 0.0km/h 7.5km/h
Racha viento: 27.8km/h - -
Viento- - SSW
Presión: 1027.7 hPa 1023.4 hPa -
Precipitación: 0.0 mm    
Historical Graphs
 
 
Tabla de datos para Marzo 14, 2019
Hora Temperatura Punto de rocio Presión Viento Velocidad viento Racha viento Humedad Intensidad lluvia(por hora) Nubes
00:00 12.1 °C 7.4 °C 1026.4 hPa ENE 3.2 km/h 8.0 km/h 73% 0.0 mm CLR
00:05 12.1 °C 7.4 °C 1026.4 hPa East 4.7 km/h 5.6 km/h 73% 0.0 mm CLR
00:10 12.1 °C 7.4 °C 1026.4 hPa East 3.9 km/h 3.7 km/h 73% 0.0 mm CLR
00:15 12.1 °C 7.4 °C 1026.4 hPa East 3.9 km/h   73% 0.0 mm CLR
00:20 12.1 °C 7.4 °C 1026.5 hPa Calm   5.6 km/h 73% 0.0 mm CLR
00:25 12.0 °C 7.3 °C 1026.5 hPa Calm   5.6 km/h 73% 0.0 mm CLR
00:30 11.9 °C 7.2 °C 1026.5 hPa East 3.2 km/h 7.4 km/h 73% 0.0 mm CLR
00:35 11.9 °C 7.2 °C 1026.6 hPa East 3.2 km/h   73% 0.0 mm CLR
00:40 11.8 °C 7.1 °C 1026.6 hPa East 2.9 km/h 5.6 km/h 73% 0.0 mm CLR
00:45 11.8 °C 7.3 °C 1026.6 hPa NW 2.9 km/h 5.6 km/h 74% 0.0 mm CLR
00:50 11.7 °C 7.2 °C 1026.7 hPa NW 3.2 km/h 3.7 km/h 74% 0.0 mm CLR
00:55 11.6 °C 7.1 °C 1026.7 hPa NW 3.2 km/h 3.7 km/h 74% 0.0 mm CLR
01:00 11.6 °C 7.1 °C 1026.7 hPa NW 3.2 km/h 4.8 km/h 74% 0.0 mm CLR
01:05 11.4 °C 7.1 °C 1026.9 hPa NW 2.9 km/h 3.7 km/h 75% 0.0 mm CLR
01:10 11.4 °C 7.3 °C 1026.9 hPa NW 2.3 km/h 5.6 km/h 76% 0.0 mm CLR
01:15 11.4 °C 7.1 °C 1026.9 hPa ESE 2.3 km/h 7.4 km/h 75% 0.0 mm CLR
01:20 11.3 °C 7.0 °C 1026.8 hPa ESE 3.9 km/h 3.9 km/h 75% 0.0 mm CLR
01:25 11.3 °C 7.0 °C 1026.8 hPa ESE 3.9 km/h 6.4 km/h 75% 0.0 mm CLR
01:30 11.3 °C 7.2 °C 1026.8 hPa SSE 4.7 km/h 7.4 km/h 76% 0.0 mm CLR
01:35 11.3 °C 7.4 °C 1026.8 hPa South 4.7 km/h 11.1 km/h 77% 0.0 mm CLR
01:40 11.4 °C 7.5 °C 1026.8 hPa South 6.9 km/h 11.1 km/h 77% 0.0 mm CLR
01:45 11.4 °C 7.5 °C 1026.8 hPa SSW 6.9 km/h 10.0 km/h 77% 0.0 mm CLR
01:50 11.4 °C 7.5 °C 1026.8 hPa SSW 7.6 km/h 9.3 km/h 77% 0.0 mm CLR
01:55 11.5 °C 7.4 °C 1026.8 hPa SW 7.6 km/h 9.3 km/h 76% 0.0 mm CLR
02:00 11.6 °C 7.3 °C 1026.8 hPa SW 8.0 km/h 9.7 km/h 75% 0.0 mm CLR
02:05 11.5 °C 7.2 °C 1026.9 hPa SW 6.4 km/h 9.5 km/h 75% 0.0 mm CLR
02:10 11.5 °C 7.2 °C 1026.9 hPa SW 5.8 km/h 7.4 km/h 75% 0.0 mm CLR
02:15 11.6 °C 7.3 °C 1026.9 hPa SSW 5.8 km/h 9.3 km/h 75% 0.0 mm CLR
02:20 11.6 °C 7.3 °C 1026.9 hPa SW 6.4 km/h 11.1 km/h 75% 0.0 mm CLR
02:25 11.6 °C 7.3 °C 1026.9 hPa SW 6.4 km/h 9.5 km/h 75% 0.0 mm CLR
02:30 11.6 °C 7.3 °C 1026.9 hPa SW 6.4 km/h 7.4 km/h 75% 0.0 mm CLR
02:35 11.6 °C 7.3 °C 1026.8 hPa WSW 6.4 km/h 7.4 km/h 75% 0.0 mm CLR
02:40 11.4 °C 7.1 °C 1026.8 hPa SW 5.8 km/h 9.5 km/h 75% 0.0 mm CLR
02:45 11.4 °C 7.1 °C 1026.8 hPa SSW 5.8 km/h 11.1 km/h 75% 0.0 mm CLR
02:50 11.4 °C 7.1 °C 1026.9 hPa SW 6.9 km/h 9.3 km/h 75% 0.0 mm CLR
02:55 11.4 °C 7.1 °C 1026.9 hPa SW 6.9 km/h 9.5 km/h 75% 0.0 mm CLR
03:00 11.4 °C 7.1 °C 1026.9 hPa SW 4.8 km/h 14.5 km/h 75% 0.0 mm CLR
03:05 11.3 °C 7.0 °C 1026.9 hPa South 5.8 km/h 11.1 km/h 75% 0.0 mm CLR
03:10 11.2 °C 7.1 °C 1026.9 hPa SSW 8.7 km/h 13.0 km/h 76% 0.0 mm CLR
03:15 11.0 °C 6.9 °C 1026.9 hPa SSW 8.7 km/h 11.9 km/h 76% 0.0 mm CLR
03:20 10.9 °C 7.0 °C 1026.7 hPa SSW 9.5 km/h 9.3 km/h 77% 0.0 mm CLR
03:25 10.9 °C 7.0 °C 1026.7 hPa SSW 9.5 km/h 9.3 km/h 77% 0.0 mm CLR
03:30 10.8 °C 6.9 °C 1026.7 hPa SSW 7.6 km/h 14.8 km/h 77% 0.0 mm CLR
03:35 10.8 °C 6.9 °C 1026.7 hPa SSW 7.6 km/h 11.1 km/h 77% 0.0 mm CLR
03:40 10.7 °C 6.8 °C 1026.7 hPa South 8.7 km/h 13.0 km/h 77% 0.0 mm CLR
03:45 10.7 °C 6.8 °C 1026.7 hPa SSW 8.7 km/h 13.0 km/h 77% 0.0 mm CLR
03:50 10.7 °C 6.8 °C 1026.4 hPa SW 8.7 km/h 9.3 km/h 77% 0.0 mm CLR
03:55 10.7 °C 6.8 °C 1026.4 hPa SW 8.7 km/h 9.3 km/h 77% 0.0 mm CLR
04:00 10.7 °C 6.7 °C 1026.4 hPa SSW 8.0 km/h 11.3 km/h 76% 0.0 mm CLR
04:05 10.8 °C 6.7 °C 1026.2 hPa SW 7.6 km/h 11.1 km/h 76% 0.0 mm CLR
04:10 10.8 °C 6.9 °C 1026.2 hPa South 7.6 km/h 7.4 km/h 77% 0.0 mm CLR
04:15 10.8 °C 6.9 °C 1026.2 hPa SW 7.6 km/h 7.4 km/h 77% 0.0 mm CLR
04:20 10.9 °C 7.0 °C 1026.3 hPa WSW 6.4 km/h 7.4 km/h 77% 0.0 mm CLR
04:25 10.9 °C 6.8 °C 1026.3 hPa SW 6.4 km/h 9.3 km/h 76% 0.0 mm CLR
04:30 10.8 °C 6.9 °C 1026.3 hPa SSW 5.8 km/h 7.6 km/h 77% 0.0 mm CLR
04:35 10.8 °C 6.9 °C 1026.1 hPa SW 5.8 km/h 5.8 km/h 77% 0.0 mm CLR
04:40 10.8 °C 6.7 °C 1026.1 hPa SW 5.0 km/h 5.6 km/h 76% 0.0 mm CLR
04:45 10.8 °C 6.7 °C 1026.1 hPa SW 5.0 km/h 5.6 km/h 76% 0.0 mm CLR
04:50 10.8 °C 6.6 °C 1026.0 hPa WSW 3.2 km/h 5.6 km/h 75% 0.0 mm CLR
04:55 10.8 °C 6.2 °C 1026.0 hPa SSW 3.2 km/h 5.6 km/h 73% 0.0 mm CLR
05:00 10.7 °C 6.1 °C 1026.0 hPa SSW 3.2 km/h 8.0 km/h 73% 0.0 mm CLR
05:05 10.7 °C 6.1 °C 1026.1 hPa SSW 3.9 km/h 3.7 km/h 73% 0.0 mm CLR
05:10 10.6 °C 6.2 °C 1026.1 hPa SSW 3.2 km/h 3.7 km/h 74% 0.0 mm CLR
05:15 10.3 °C 6.1 °C 1026.1 hPa SSW 3.2 km/h 3.7 km/h 75% 0.0 mm CLR
05:20 10.2 °C 5.9 °C 1026.2 hPa SSW 3.2 km/h 5.6 km/h 75% 0.0 mm CLR
05:25 10.0 °C 5.9 °C 1026.2 hPa SW 3.2 km/h 8.7 km/h 76% 0.0 mm CLR
05:30 9.9 °C 5.7 °C 1026.2 hPa SW 4.7 km/h 11.1 km/h 75% 0.0 mm CLR
05:35 9.9 °C 5.5 °C 1026.0 hPa SW 4.7 km/h 10.0 km/h 74% 0.0 mm CLR
05:40 10.0 °C 5.2 °C 1026.0 hPa WSW 7.6 km/h 7.6 km/h 72% 0.0 mm CLR
05:45 10.1 °C 5.3 °C 1026.0 hPa West 7.6 km/h 11.1 km/h 72% 0.0 mm CLR
05:50 10.0 °C 4.3 °C 1026.1 hPa WNW 6.4 km/h 9.3 km/h 68% 0.0 mm CLR
05:55 9.9 °C 3.8 °C 1026.1 hPa SW 6.4 km/h 9.3 km/h 66% 0.0 mm CLR
06:00 9.9 °C 3.8 °C 1026.1 hPa WSW 4.8 km/h 8.0 km/h 66% 0.0 mm CLR
06:05 9.8 °C 3.7 °C 1026.5 hPa SW 5.0 km/h 3.7 km/h 66% 0.0 mm CLR
06:10 9.8 °C 3.9 °C 1026.5 hPa SW 2.9 km/h 3.7 km/h 67% 0.0 mm CLR
06:15 9.8 °C 3.9 °C 1026.5 hPa SW 2.9 km/h 5.6 km/h 67% 0.0 mm CLR
06:20 9.7 °C 3.9 °C 1026.6 hPa SW 2.9 km/h 5.6 km/h 67% 0.0 mm CLR
06:25 9.7 °C 3.9 °C 1026.6 hPa SW 2.9 km/h 5.8 km/h 67% 0.0 mm CLR
06:30 9.7 °C 3.9 °C 1026.6 hPa SW 3.9 km/h 7.4 km/h 67% 0.0 mm CLR
06:35 9.8 °C 3.3 °C 1026.5 hPa SW 3.9 km/h 9.3 km/h 64% 0.0 mm CLR
06:40 9.9 °C 2.9 °C 1026.5 hPa South 6.4 km/h 7.4 km/h 62% 0.0 mm CLR
06:45 10.1 °C 2.4 °C 1026.5 hPa SSE 6.4 km/h 7.4 km/h 59% 0.0 mm CLR
06:50 10.2 °C 2.6 °C 1026.5 hPa South 6.4 km/h 8.4 km/h 59% 0.0 mm CLR
06:55 10.2 °C 2.3 °C 1026.5 hPa South 6.4 km/h 7.4 km/h 58% 0.0 mm CLR
07:00 10.2 °C 2.1 °C 1026.5 hPa South 4.8 km/h 8.0 km/h 57% 0.0 mm CLR
07:05 10.2 °C 1.8 °C 1026.7 hPa South 5.0 km/h 5.6 km/h 56% 0.0 mm CLR
07:10 10.3 °C 2.2 °C 1026.7 hPa SE 4.7 km/h 7.4 km/h 57% 0.0 mm CLR
07:15 10.0 °C 2.6 °C 1026.7 hPa East 4.7 km/h 7.4 km/h 60% 0.0 mm CLR
07:20 9.6 °C 2.2 °C 1026.7 hPa SSE 4.7 km/h 9.3 km/h 60% 0.0 mm CLR
07:25 9.7 °C 1.8 °C 1026.7 hPa South 4.7 km/h 9.3 km/h 58% 0.0 mm CLR
07:30 9.8 °C 1.4 °C 1026.7 hPa South 6.9 km/h 9.3 km/h 56% 0.0 mm CLR
07:35 10.1 °C 1.4 °C 1026.8 hPa South 6.9 km/h 7.4 km/h 55% 0.0 mm CLR
07:40 10.2 °C 1.3 °C 1026.8 hPa SSW 6.4 km/h 5.6 km/h 54% 0.0 mm CLR
07:45 10.4 °C 1.5 °C 1026.8 hPa SSW 6.4 km/h 7.4 km/h 54% 0.0 mm CLR
07:50 10.6 °C 1.2 °C 1026.8 hPa SSW 3.9 km/h 9.3 km/h 52% 0.0 mm CLR
07:55 10.7 °C 0.9 °C 1026.8 hPa SW 3.9 km/h 9.3 km/h 51% 0.0 mm CLR
08:00 10.8 °C 1.1 °C 1026.8 hPa SW 4.8 km/h 9.7 km/h 51% 0.0 mm CLR
08:05 10.9 °C 0.6 °C 1026.9 hPa SW 5.8 km/h 7.4 km/h 49% 0.0 mm CLR
08:10 11.1 °C 0.8 °C 1026.9 hPa SSW 5.8 km/h 9.3 km/h 49% 0.0 mm CLR
08:15 11.2 °C 1.2 °C 1026.9 hPa SSW 5.8 km/h 1.9 km/h 50% 0.0 mm CLR
08:20 11.4 °C 1.1 °C 1027.1 hPa SSW 3.9 km/h 3.7 km/h 49% 0.0 mm CLR
08:25 11.7 °C 0.7 °C 1027.1 hPa SW 3.9 km/h 7.6 km/h 47% 0.0 mm CLR
08:30 11.8 °C 0.6 °C 1027.1 hPa WSW 3.9 km/h 9.3 km/h 46% 0.0 mm CLR
08:35 11.9 °C 0.3 °C 1027.2 hPa West 3.9 km/h 11.1 km/h 45% 0.0 mm CLR
08:40 12.0 °C 0.1 °C 1027.2 hPa WSW 6.9 km/h 13.0 km/h 44% 0.0 mm CLR
08:45 12.1 °C -0.1 °C 1027.2 hPa WSW 6.9 km/h 11.1 km/h 43% 0.0 mm CLR
08:50 12.3 °C 0.1 °C 1027.3 hPa WSW 6.9 km/h 14.8 km/h 43% 0.0 mm CLR
08:55 12.3 °C -0.3 °C 1027.3 hPa WSW 6.9 km/h 16.7 km/h 42% 0.0 mm CLR
09:00 12.4 °C -0.1 °C 1027.3 hPa WSW 9.7 km/h 14.5 km/h 42% 0.0 mm CLR
09:05 12.6 °C 0.0 °C 1027.4 hPa West 8.7 km/h 14.8 km/h 42% 0.0 mm CLR
09:10 12.7 °C 0.1 °C 1027.4 hPa WSW 9.5 km/h 14.8 km/h 42% 0.0 mm CLR
09:15 12.9 °C -0.4 °C 1027.4 hPa West 9.5 km/h 18.0 km/h 40% 0.0 mm CLR
09:20 12.9 °C -0.7 °C 1027.5 hPa WNW 10.3 km/h 25.9 km/h 39% 0.0 mm CLR
09:25 13.0 °C -0.3 °C 1027.5 hPa WSW 10.3 km/h 13.0 km/h 40% 0.0 mm CLR
09:30 13.2 °C -0.4 °C 1027.5 hPa WSW 11.9 km/h 16.7 km/h 39% 0.0 mm CLR
09:35 13.3 °C -0.7 °C 1027.4 hPa West 11.9 km/h 16.7 km/h 38% 0.0 mm CLR
09:40 13.5 °C -0.6 °C 1027.4 hPa NW 11.9 km/h 14.8 km/h 38% 0.0 mm CLR
09:45 13.7 °C -0.7 °C 1027.4 hPa NW 11.9 km/h 18.5 km/h 37% 0.0 mm CLR
09:50 13.8 °C -1.1 °C 1027.5 hPa West 12.2 km/h 27.8 km/h 36% 0.0 mm CLR
09:55 13.8 °C -0.7 °C 1027.5 hPa WNW 12.2 km/h 18.5 km/h 37% 0.0 mm CLR
10:00 14.0 °C -0.9 °C 1027.5 hPa WNW 14.5 km/h 22.5 km/h 36% 0.0 mm CLR
10:05 14.2 °C -1.1 °C 1027.7 hPa WNW 14.8 km/h 23.3 km/h 35% 0.0 mm CLR
10:10 14.3 °C -1.0 °C 1027.7 hPa WNW 14.0 km/h 27.8 km/h 35% 0.0 mm CLR
10:15 14.4 °C -0.9 °C 1027.7 hPa WNW 14.0 km/h 27.4 km/h 35% 0.0 mm CLR
10:20 14.6 °C -1.1 °C 1027.7 hPa West 16.1 km/h 25.9 km/h 34% 0.0 mm CLR
10:25 14.7 °C -1.0 °C 1027.7 hPa WNW 16.1 km/h 27.0 km/h 34% 0.0 mm CLR
10:30 14.7 °C -1.0 °C 1027.7 hPa NNE 16.4 km/h 20.4 km/h 34% 0.0 mm CLR
10:35 14.8 °C -1.3 °C 1027.5 hPa WNW 16.4 km/h 27.8 km/h 33% 0.0 mm CLR
10:40 14.9 °C -1.3 °C 1027.5 hPa NW 16.4 km/h 24.1 km/h 33% 0.0 mm CLR
10:45 14.9 °C -1.7 °C 1027.5 hPa NNW 16.4 km/h 22.2 km/h 32% 0.0 mm CLR
10:50 14.9 °C -1.7 °C 1027.5 hPa NW 14.8 km/h 13.0 km/h 32% 0.0 mm CLR
10:55 15.1 °C -1.5 °C 1027.5 hPa West 14.8 km/h 16.7 km/h 32% 0.0 mm CLR
11:00 15.2 °C -1.1 °C 1027.5 hPa WNW 11.3 km/h 20.9 km/h 33% 0.0 mm CLR
11:05 15.4 °C -1.7 °C 1027.5 hPa WNW 11.9 km/h 15.6 km/h 31% 0.0 mm CLR
11:10 15.4 °C -2.1 °C 1027.5 hPa WNW 11.9 km/h 11.1 km/h 30% 0.0 mm CLR
11:15 15.5 °C -1.6 °C 1027.5 hPa WNW 11.9 km/h 20.9 km/h 31% 0.0 mm CLR
11:20 15.4 °C -1.7 °C 1027.5 hPa West 10.0 km/h 13.0 km/h 31% 0.0 mm CLR
11:25 15.7 °C -1.4 °C 1027.5 hPa WNW 10.0 km/h 11.1 km/h 31% 0.0 mm CLR
11:30 15.8 °C -1.8 °C 1027.5 hPa NW 8.7 km/h 14.0 km/h 30% 0.0 mm CLR
11:35 15.8 °C -1.8 °C 1027.4 hPa NW 8.7 km/h 11.1 km/h 30% 0.0 mm CLR
11:40 15.9 °C -1.7 °C 1027.4 hPa West 8.4 km/h 14.8 km/h 30% 0.0 mm CLR
11:45 16.2 °C -1.9 °C 1027.4 hPa SW 8.4 km/h 14.8 km/h 29% 0.0 mm CLR
11:50 16.3 °C -1.3 °C 1027.4 hPa WNW 8.4 km/h 18.5 km/h 30% 0.0 mm CLR
11:55 16.4 °C -1.2 °C 1027.4 hPa NNE 8.4 km/h 11.1 km/h 30% 0.0 mm CLR
12:00 16.7 °C -1.4 °C 1027.4 hPa North 9.7 km/h 12.9 km/h 29% 0.0 mm CLR
12:05 16.8 °C -1.3 °C 1027.2 hPa WNW 8.7 km/h 9.3 km/h 29% 0.0 mm CLR
12:10 16.9 °C -1.7 °C 1027.2 hPa WNW 5.8 km/h 3.7 km/h 28% 0.0 mm CLR
12:15 17.1 °C -1.6 °C 1027.2 hPa SSW 5.8 km/h 7.4 km/h 28% 0.0 mm CLR
12:20 17.2 °C -1.5 °C 1027.2 hPa WNW 5.8 km/h 9.3 km/h 28% 0.0 mm CLR
12:25 17.2 °C -1.5 °C 1027.2 hPa WNW 5.8 km/h 14.8 km/h 28% 0.0 mm CLR
12:30 17.2 °C -2.0 °C 1027.2 hPa NNW 6.9 km/h 11.1 km/h 27% 0.0 mm CLR
12:35 17.3 °C -1.9 °C 1027.0 hPa WNW 6.9 km/h 7.4 km/h 27% 0.0 mm CLR
12:40 17.4 °C -1.8 °C 1027.0 hPa NW 5.8 km/h 18.5 km/h 27% 0.0 mm CLR
12:45 17.4 °C -1.8 °C 1027.0 hPa SW 5.8 km/h 10.3 km/h 27% 0.0 mm CLR
12:50 17.6 °C -1.7 °C 1026.9 hPa WNW 8.4 km/h 18.5 km/h 27% 0.0 mm CLR
12:55 17.6 °C -2.2 °C 1026.9 hPa NW 8.4 km/h 14.0 km/h 26% 0.0 mm CLR
13:00 17.6 °C -2.2 °C 1026.9 hPa WNW 9.7 km/h 19.3 km/h 26% 0.0 mm CLR
13:05 17.7 °C -2.1 °C 1026.6 hPa WNW 10.0 km/h 9.3 km/h 26% 0.0 mm CLR
13:10 17.8 °C -2.0 °C 1026.6 hPa WNW 8.7 km/h 11.1 km/h 26% 0.0 mm CLR
13:15 17.9 °C -1.9 °C 1026.6 hPa NW 8.7 km/h 14.8 km/h 26% 0.0 mm CLR
13:20 17.8 °C -2.5 °C 1026.4 hPa WNW 10.0 km/h 14.8 km/h 25% 0.0 mm CLR
13:25 17.8 °C -2.0 °C 1026.4 hPa WNW 10.0 km/h 8.4 km/h 26% 0.0 mm CLR
13:30 18.2 °C -2.2 °C 1026.4 hPa East 5.0 km/h 7.4 km/h 25% 0.0 mm CLR
13:35 18.3 °C -2.1 °C 1026.0 hPa NE 5.0 km/h 7.4 km/h 25% 0.0 mm CLR
13:40 18.5 °C -1.9 °C 1026.0 hPa NW 5.0 km/h 7.4 km/h 25% 0.0 mm CLR
13:45 18.5 °C -1.9 °C 1026.0 hPa SE 5.0 km/h 11.1 km/h 25% 0.0 mm CLR
13:50 18.3 °C -2.1 °C 1025.8 hPa SSW 6.9 km/h 16.7 km/h 25% 0.0 mm CLR
13:55 18.2 °C -2.2 °C 1025.8 hPa SSW 6.9 km/h 16.7 km/h 25% 0.0 mm CLR
14:00 18.2 °C -2.2 °C 1025.8 hPa South 9.7 km/h 17.7 km/h 25% 0.0 mm CLR
14:05 18.4 °C -2.6 °C 1025.4 hPa SSW 10.0 km/h 14.8 km/h 24% 0.0 mm CLR
14:10 18.7 °C -2.3 °C 1025.4 hPa South 10.0 km/h 19.0 km/h 24% 0.0 mm CLR
14:15 18.7 °C -2.3 °C 1025.4 hPa SE 10.0 km/h 11.1 km/h 24% 0.0 mm CLR
14:20 18.7 °C -2.3 °C 1025.1 hPa South 8.4 km/h 5.6 km/h 24% 0.0 mm CLR
14:25 19.0 °C -2.1 °C 1025.1 hPa West 8.4 km/h 10.3 km/h 24% 0.0 mm CLR
14:30 19.3 °C -2.4 °C 1025.1 hPa WSW 3.2 km/h 10.3 km/h 23% 0.0 mm CLR
14:35 19.4 °C -2.3 °C 1024.9 hPa SW 3.2 km/h 9.3 km/h 23% 0.0 mm CLR
14:40 19.4 °C -2.9 °C 1024.9 hPa SSW 6.9 km/h 11.1 km/h 22% 0.0 mm CLR
14:45 19.5 °C -2.8 °C 1024.9 hPa South 6.9 km/h 14.0 km/h 22% 0.0 mm CLR
14:50 19.4 °C -2.9 °C 1024.6 hPa SSE 6.9 km/h 14.8 km/h 22% 0.0 mm CLR
14:55 19.4 °C -2.9 °C 1024.6 hPa South 6.9 km/h 13.0 km/h 22% 0.0 mm CLR
15:00 19.5 °C -2.8 °C 1024.6 hPa SE 9.7 km/h 14.5 km/h 22% 0.0 mm CLR
15:05 19.7 °C -2.7 °C 1024.4 hPa SSE 8.7 km/h 7.4 km/h 22% 0.0 mm CLR
15:10 19.7 °C -3.3 °C 1024.4 hPa SSE 6.4 km/h 16.7 km/h 21% 0.0 mm CLR
15:15 19.6 °C -3.3 °C 1024.4 hPa SE 6.4 km/h 3.7 km/h 21% 0.0 mm CLR
15:20 19.8 °C -3.2 °C 1024.4 hPa ENE 6.9 km/h 13.0 km/h 21% 0.0 mm CLR
15:25 20.0 °C -3.0 °C 1024.4 hPa ENE 6.9 km/h 11.1 km/h 21% 0.0 mm CLR
15:30 20.1 °C -2.9 °C 1024.4 hPa NE 6.9 km/h 11.1 km/h 21% 0.0 mm CLR
15:35 20.1 °C -3.6 °C 1024.2 hPa SE 6.9 km/h 13.0 km/h 20% 0.0 mm CLR
15:40 20.2 °C -3.5 °C 1024.2 hPa ESE 6.4 km/h 11.1 km/h 20% 0.0 mm CLR
15:45 20.1 °C -3.6 °C 1024.2 hPa ENE 6.4 km/h 11.1 km/h 20% 0.0 mm CLR
15:50 20.3 °C -3.4 °C 1024.0 hPa South 7.6 km/h 11.1 km/h 20% 0.0 mm CLR
15:55 20.6 °C -3.2 °C 1024.0 hPa South 7.6 km/h 13.0 km/h 20% 0.0 mm CLR
16:00 20.6 °C -2.5 °C 1024.0 hPa South 8.0 km/h 12.9 km/h 21% 0.0 mm CLR
16:05 21.0 °C -2.8 °C 1023.9 hPa WSW 8.4 km/h 7.4 km/h 20% 0.0 mm CLR
16:10 21.1 °C -2.8 °C 1023.9 hPa SSW 4.7 km/h 9.3 km/h 20% 0.0 mm CLR
16:15 21.3 °C -2.6 °C 1023.9 hPa ESE 4.7 km/h 9.3 km/h 20% 0.0 mm CLR
16:20 21.1 °C -2.8 °C 1023.9 hPa SE 6.4 km/h 13.0 km/h 20% 0.0 mm CLR
16:25 21.1 °C -2.8 °C 1023.9 hPa East 6.4 km/h 7.4 km/h 20% 0.0 mm CLR
16:30 21.0 °C -2.8 °C 1023.9 hPa NNE 5.8 km/h 7.4 km/h 20% 0.0 mm CLR
16:35 21.2 °C -2.7 °C 1023.6 hPa East 5.8 km/h 3.7 km/h 20% 0.0 mm CLR
16:40 21.1 °C -3.4 °C 1023.6 hPa ESE 4.7 km/h 11.1 km/h 19% 0.0 mm CLR
16:45 20.9 °C 0.7 °C 1023.6 hPa ESE 4.7 km/h 20.4 km/h 26% 0.0 mm CLR
16:50 20.6 °C 1.4 °C 1023.6 hPa ESE 10.0 km/h 13.0 km/h 28% 0.0 mm CLR
16:55 20.3 °C 1.7 °C 1023.6 hPa ESE 10.0 km/h 14.8 km/h 29% 0.0 mm CLR
17:00 20.2 °C 2.1 °C 1023.6 hPa ESE 12.9 km/h 24.1 km/h 30% 0.0 mm CLR
17:05 20.1 °C 1.5 °C 1023.5 hPa ESE 13.7 km/h 16.4 km/h 29% 0.0 mm CLR
17:10 20.1 °C 2.4 °C 1023.5 hPa SSE 14.0 km/h 27.8 km/h 31% 0.0 mm CLR
17:15 19.8 °C 2.2 °C 1023.5 hPa ESE 14.0 km/h 20.9 km/h 31% 0.0 mm CLR
17:20 19.9 °C 2.7 °C 1023.5 hPa East 14.8 km/h 20.4 km/h 32% 0.0 mm CLR
17:24 19.8 °C 2.6 °C 1023.5 hPa ESE 14.8 km/h 14.8 km/h 32% 0.0 mm CLR
17:30 19.7 °C 2.6 °C 1023.5 hPa SE 14.8 km/h 20.4 km/h 32% 0.0 mm CLR
17:34 19.7 °C 2.9 °C 1023.4 hPa ESE 14.8 km/h 20.4 km/h 33% 0.0 mm CLR
17:40 19.5 °C 3.2 °C 1023.4 hPa East 14.0 km/h 22.2 km/h 34% 0.0 mm CLR
17:45 19.2 °C 3.3 °C 1023.4 hPa SE 14.0 km/h 24.1 km/h 35% 0.0 mm CLR
17:50 19.1 °C 3.3 °C 1023.5 hPa SE 16.1 km/h 18.5 km/h 35% 0.0 mm CLR
17:55 19.0 °C 3.2 °C 1023.5 hPa ENE 16.1 km/h 20.4 km/h 35% 0.0 mm CLR
18:00 18.9 °C 3.1 °C 1023.5 hPa ESE 14.5 km/h 22.5 km/h 35% 0.0 mm CLR
18:05 18.9 °C 3.1 °C 1023.4 hPa ESE 15.6 km/h 20.4 km/h 35% 0.0 mm CLR
18:10 18.8 °C 3.4 °C 1023.4 hPa ESE 13.7 km/h 18.5 km/h 36% 0.0 mm CLR
18:15 18.8 °C 3.0 °C 1023.4 hPa SE 13.7 km/h 18.5 km/h 35% 0.0 mm CLR
18:20 18.9 °C 3.9 °C 1023.6 hPa ESE 11.9 km/h 16.7 km/h 37% 0.0 mm CLR
18:25 18.6 °C 4.4 °C 1023.6 hPa ESE 11.9 km/h 20.4 km/h 39% 0.0 mm CLR
18:30 18.4 °C 4.2 °C 1023.6 hPa ESE 13.0 km/h 18.5 km/h 39% 0.0 mm CLR
18:35 18.3 °C 4.1 °C 1023.8 hPa ESE 13.0 km/h 13.0 km/h 39% 0.0 mm CLR
18:40 18.2 °C 4.0 °C 1023.8 hPa East 10.3 km/h 11.1 km/h 39% 0.0 mm CLR
18:45 18.2 °C 4.4 °C 1023.8 hPa ESE 10.3 km/h 16.7 km/h 40% 0.0 mm CLR
18:50 18.0 °C 4.6 °C 1024.0 hPa SE 10.3 km/h 13.0 km/h 41% 0.0 mm CLR
18:55 17.9 °C 4.8 °C 1024.0 hPa East 10.3 km/h 9.3 km/h 42% 0.0 mm CLR
19:00 17.8 °C 4.7 °C 1024.0 hPa ESE 8.0 km/h 11.3 km/h 42% 0.0 mm CLR
19:05 17.7 °C 4.9 °C 1024.1 hPa ESE 8.4 km/h 11.9 km/h 43% 0.0 mm CLR
19:10 17.5 °C 5.1 °C 1024.1 hPa ESE 8.4 km/h 13.0 km/h 44% 0.0 mm CLR
19:15 17.2 °C 5.4 °C 1024.1 hPa SE 8.4 km/h 13.0 km/h 46% 0.0 mm CLR
19:20 17.1 °C 5.7 °C 1024.1 hPa ESE 8.7 km/h 13.7 km/h 47% 0.0 mm CLR
19:25 16.9 °C 5.8 °C 1024.1 hPa ESE 8.7 km/h 11.1 km/h 48% 0.0 mm CLR
19:30 16.8 °C 5.7 °C 1024.1 hPa ESE 8.4 km/h 11.1 km/h 48% 0.0 mm CLR
19:35 16.6 °C 5.8 °C 1024.1 hPa East 8.4 km/h 9.3 km/h 49% 0.0 mm CLR
19:40 16.5 °C 6.1 °C 1024.1 hPa ESE 6.9 km/h 9.3 km/h 50% 0.0 mm CLR
19:45 16.3 °C 6.1 °C 1024.1 hPa ESE 6.9 km/h 11.1 km/h 51% 0.0 mm CLR
19:50 16.2 °C 6.3 °C 1024.1 hPa ESE 6.9 km/h 11.1 km/h 52% 0.0 mm CLR
19:55 16.1 °C 6.5 °C 1024.1 hPa SE 6.9 km/h 9.3 km/h 53% 0.0 mm CLR
20:00 16.0 °C 6.7 °C 1024.1 hPa SE 8.0 km/h 9.7 km/h 54% 0.0 mm CLR
20:05 15.9 °C 6.6 °C 1024.3 hPa East 7.6 km/h 7.4 km/h 54% 0.0 mm CLR
20:10 15.8 °C 6.8 °C 1024.3 hPa East 4.7 km/h 5.8 km/h 55% 0.0 mm CLR
20:15 15.7 °C 6.7 °C 1024.3 hPa NW 4.7 km/h 7.6 km/h 55% 0.0 mm CLR
20:20 15.6 °C 6.3 °C 1024.5 hPa NNW 4.7 km/h 9.3 km/h 54% 0.0 mm CLR
20:25 15.4 °C 5.6 °C 1024.5 hPa NNW 4.7 km/h 7.4 km/h 52% 0.0 mm CLR
20:30 15.3 °C 5.2 °C 1024.5 hPa NNW 5.0 km/h 7.4 km/h 51% 0.0 mm CLR
20:35 15.2 °C 5.1 °C 1024.6 hPa NNW 5.0 km/h 5.6 km/h 51% 0.0 mm CLR
20:40 15.2 °C 5.1 °C 1024.6 hPa WSW 3.2 km/h 8.7 km/h 51% 0.0 mm CLR
20:45 15.2 °C 5.4 °C 1024.6 hPa NW 3.2 km/h 7.4 km/h 52% 0.0 mm CLR
20:50 15.1 °C 5.1 °C 1024.6 hPa NW 3.9 km/h 3.7 km/h 51% 0.0 mm CLR
20:55 15.1 °C 5.3 °C 1024.6 hPa NW 3.9 km/h   52% 0.0 mm CLR
21:00 15.1 °C 6.1 °C 1024.6 hPa WNW 1.6 km/h 9.7 km/h 55% 0.0 mm CLR
21:05 15.2 °C 6.5 °C 1024.7 hPa SW 2.3 km/h 11.1 km/h 56% 0.0 mm CLR
21:10 15.3 °C 6.8 °C 1024.7 hPa WNW 6.4 km/h 9.3 km/h 57% 0.0 mm CLR
21:15 15.3 °C 6.8 °C 1024.7 hPa WSW 6.4 km/h 7.4 km/h 57% 0.0 mm CLR
21:20 15.3 °C 7.1 °C 1024.7 hPa WSW 4.7 km/h 4.7 km/h 58% 0.0 mm CLR
21:25 15.2 °C 7.0 °C 1024.7 hPa WSW 4.7 km/h 9.3 km/h 58% 0.0 mm CLR
21:30 15.2 °C 7.2 °C 1024.7 hPa SW 5.0 km/h 14.8 km/h 59% 0.0 mm CLR
21:35 15.2 °C 7.2 °C 1024.7 hPa SSW 5.0 km/h 18.5 km/h 59% 0.0 mm CLR
21:40 15.1 °C 7.4 °C 1024.7 hPa SSW 8.4 km/h 13.0 km/h 60% 0.0 mm CLR
21:45 15.1 °C 7.4 °C 1024.7 hPa SSW 8.4 km/h 9.3 km/h 60% 0.0 mm CLR
21:50 15.1 °C 7.4 °C 1024.8 hPa SW 7.6 km/h 9.3 km/h 60% 0.0 mm CLR
21:55 15.0 °C 7.6 °C 1024.8 hPa West 7.6 km/h 11.1 km/h 61% 0.0 mm CLR
22:00 14.9 °C 7.4 °C 1024.8 hPa WSW 8.0 km/h 14.5 km/h 61% 0.0 mm CLR
22:05 14.9 °C 7.7 °C 1024.8 hPa SW 6.9 km/h 9.3 km/h 62% 0.0 mm CLR
22:10 14.8 °C 7.8 °C 1024.8 hPa SW 7.6 km/h 11.1 km/h 63% 0.0 mm CLR
22:15 14.7 °C 7.7 °C 1024.8 hPa SW 7.6 km/h 9.3 km/h 63% 0.0 mm CLR
22:20 14.7 °C 7.5 °C 1024.8 hPa SSW 7.6 km/h 10.0 km/h 62% 0.0 mm CLR
22:25 14.7 °C 7.3 °C 1024.8 hPa SSW 7.6 km/h 11.1 km/h 61% 0.0 mm CLR
22:30 14.6 °C 6.9 °C 1024.8 hPa South 7.6 km/h 9.3 km/h 60% 0.0 mm CLR
22:35 14.6 °C 6.9 °C 1024.9 hPa SW 7.6 km/h 7.4 km/h 60% 0.0 mm CLR
22:40 14.5 °C 6.8 °C 1024.9 hPa West 6.4 km/h 9.3 km/h 60% 0.0 mm CLR
22:45 14.4 °C 6.0 °C 1024.9 hPa WSW 6.4 km/h 13.0 km/h 57% 0.0 mm CLR
22:50 14.3 °C 5.6 °C 1025.0 hPa SW 6.9 km/h 10.0 km/h 56% 0.0 mm CLR
22:55 14.2 °C 5.3 °C 1025.0 hPa SW 6.9 km/h 7.4 km/h 55% 0.0 mm CLR
23:00 14.2 °C 5.6 °C 1025.0 hPa SW 4.8 km/h 9.7 km/h 56% 0.0 mm CLR
23:05 14.2 °C 6.1 °C 1025.0 hPa SSW 5.8 km/h 7.6 km/h 58% 0.0 mm CLR
23:10 14.1 °C 5.9 °C 1025.0 hPa SW 6.4 km/h 15.6 km/h 58% 0.0 mm CLR
23:15 14.0 °C 6.1 °C 1025.0 hPa SW 6.4 km/h 11.1 km/h 59% 0.0 mm CLR
23:20 13.9 °C 6.3 °C 1024.9 hPa SW 6.9 km/h 7.4 km/h 60% 0.0 mm CLR
23:25 13.9 °C 6.7 °C 1024.9 hPa South 6.9 km/h 11.1 km/h 62% 0.0 mm CLR
23:30 13.8 °C 7.3 °C 1024.9 hPa SSW 6.9 km/h 13.0 km/h 65% 0.0 mm CLR
23:35 13.6 °C 7.6 °C 1025.0 hPa SW 6.9 km/h 13.0 km/h 67% 0.0 mm CLR
23:40 13.4 °C 7.6 °C 1025.0 hPa SSW 9.5 km/h 14.8 km/h 68% 0.0 mm CLR
23:45 13.2 °C 7.4 °C 1025.0 hPa SSW 9.5 km/h 18.5 km/h 68% 0.0 mm CLR
23:50 13.1 °C 7.6 °C 1024.9 hPa SSW 12.2 km/h 16.7 km/h 69% 0.0 mm CLR
23:55 13.1 °C 7.6 °C 1024.9 hPa SW 12.2 km/h 18.5 km/h 69% 0.0 mm CLR
Murcia-Puente Tocinos, España
Compliments of Weather Underground - 2.75 mb

La estación de MeteoMurcia.com, publica sus datos en los siguientes proyectos:

Weather Underground PWS IMURCIAP2 Meteoclimatic www.awekas.at

W3Counter
Web Analytics